Terminal Aerodrome Forecast
Issued by NWS

Current Version | Previous Version | Text Only | Print | Product List | Glossary On
Versions: 1 2 3 4 5 6 7 8 9 10 11 12
000
FTUS46 KSGX 282325
TAFONT
TAF
KONT 282325Z 2900/3006 26012KT P6SM FEW100 FEW250
     FM290430 VRB05KT P6SM SKC
     FM291930 26012G18KT P6SM SKC
     FM300500 VRB05KT P6SM SKC=

USA.gov is the U.S. government's official web portal to all federal, state and local government web resources and services.